Time;durP1;ratioP1;P1;durP2;ratioP2;P2;SDS_P1;SDS_P2;PMS_P1;PMS_P2;Temp;Humidity;BMP_temperature;BMP_pressure;BME280_temperature;BME280_humidity;BME280_pressure;Samples;Min_cycle;Max_cycle;Signal;HPM_P1;HPM_P2
2022/10/19 00:00:29;;;;;;;19.30;9.30;;;;;;;;;;4989374;28;100409;-79
2022/10/19 00:02:56;;;;;;;15.68;8.82;;;;;;;;;;4990550;28;98547;-80
2022/10/19 00:05:22;;;;;;;16.38;9.55;;;;;;;;;;4993209;28;100154;-78
2022/10/19 00:07:48;;;;;;;13.70;9.73;;;;;;;;;;5010917;28;101149;-78
2022/10/19 00:10:15;;;;;;;18.48;10.00;;;;;;;;;;5011239;28;98695;-78
2022/10/19 00:12:41;;;;;;;15.18;8.65;;;;;;;;;;5008812;28;99248;-79
2022/10/19 00:15:08;;;;;;;14.68;8.82;;;;;;;;;;5009937;28;101415;-78
2022/10/19 00:17:34;;;;;;;13.95;8.93;;;;;;;;;;5011285;28;99164;-79
2022/10/19 00:20:01;;;;;;;14.02;8.85;;;;;;;;;;5012781;28;99773;-78
2022/10/19 00:22:27;;;;;;;13.23;8.82;;;;;;;;;;5006872;28;98656;-79
2022/10/19 00:24:55;;;;;;;9.05;7.75;;;;;;;;;;4990581;28;100221;-78
2022/10/19 00:27:21;;;;;;;10.35;8.38;;;;;;;;;;4990004;28;99525;-78
2022/10/19 00:29:48;;;;;;;10.93;9.00;;;;;;;;;;4990410;28;98451;-78
2022/10/19 00:32:14;;;;;;;12.50;8.68;;;;;;;;;;4990486;28;100171;-78
2022/10/19 00:34:40;;;;;;;11.60;9.32;;;;;;;;;;4990620;28;100575;-78
2022/10/19 00:37:07;;;;;;;13.43;8.30;;;;;;;;;;4990542;28;98558;-78
2022/10/19 00:39:33;;;;;;;14.63;9.25;;;;;;;;;;4990178;28;99950;-79
2022/10/19 00:41:59;;;;;;;9.05;8.10;;;;;;;;;;4989293;28;100407;-77
2022/10/19 00:44:29;;;;;;;12.15;7.82;;;;;;;;;;4990369;28;100149;-78
2022/10/19 00:47:00;;;;;;;10.15;7.78;;;;;;;;;;4988909;28;100380;-79
2022/10/19 00:49:31;;;;;;;14.65;7.80;;;;;;;;;;4990754;28;98424;-78
2022/10/19 00:52:02;;;;;;;11.98;7.53;;;;;;;;;;4990606;28;99242;-78
2022/10/19 00:54:30;;;;;;;11.68;7.88;;;;;;;;;;4989330;28;100485;-78
2022/10/19 00:56:56;;;;;;;10.27;7.38;;;;;;;;;;4991409;28;97737;-78
2022/10/19 00:59:24;;;;;;;7.38;6.57;;;;;;;;;;4993234;28;99519;-79
2022/10/19 01:01:50;;;;;;;11.02;7.03;;;;;;;;;;4990028;28;100103;-78
2022/10/19 01:04:18;;;;;;;12.43;6.90;;;;;;;;;;4994188;28;99211;-78
2022/10/19 01:06:45;;;;;;;7.60;7.00;;;;;;;;;;4990040;28;100199;-78
2022/10/19 01:09:11;;;;;;;9.30;6.38;;;;;;;;;;4989938;28;98726;-78
2022/10/19 01:11:46;;;;;;;10.23;6.97;;;;;;;;;;4991056;28;100159;-78
2022/10/19 01:14:32;;;;;;;7.40;6.60;;;;;;;;;;5002912;28;100306;-78
2022/10/19 01:17:06;;;;;;;7.45;6.53;;;;;;;;;;5013669;28;98441;-78
2022/10/19 01:19:35;;;;;;;12.38;6.40;;;;;;;;;;5013994;28;100790;-78
2022/10/19 01:22:11;;;;;;;8.48;6.50;;;;;;;;;;5012397;28;98233;-78
2022/10/19 01:24:41;;;;;;;6.90;6.32;;;;;;;;;;5013909;28;98434;-78
2022/10/19 01:27:07;;;;;;;10.07;6.82;;;;;;;;;;5016353;28;99219;-78
2022/10/19 01:29:33;;;;;;;6.90;5.53;;;;;;;;;;5012378;28;99303;-78
2022/10/19 01:32:02;;;;;;;6.90;6.20;;;;;;;;;;5012056;28;100681;-78
2022/10/19 01:34:35;;;;;;;8.95;6.80;;;;;;;;;;5013269;28;100223;-77
2022/10/19 01:37:01;;;;;;;;;;;;;;;;;;5006036;28;99078;-78
2022/10/19 01:39:34;;;;;;;6.60;6.00;;;;;;;;;;4994174;28;129097;-78
2022/10/19 01:42:03;;;;;;;8.88;6.40;;;;;;;;;;4992899;28;100336;-76
2022/10/19 01:44:35;;;;;;;10.90;6.50;;;;;;;;;;4992733;28;98953;-78
2022/10/19 01:47:04;;;;;;;6.30;5.60;;;;;;;;;;4996511;28;99883;-78
2022/10/19 01:49:39;;;;;;;7.18;6.47;;;;;;;;;;4973380;28;98540;-78
2022/10/19 01:52:07;;;;;;;6.53;6.03;;;;;;;;;;4973271;28;99963;-77
2022/10/19 01:54:35;;;;;;;14.25;6.05;;;;;;;;;;4972508;28;101006;-79
2022/10/19 01:57:04;;;;;;;10.02;6.40;;;;;;;;;;4983663;28;98576;-79
2022/10/19 01:59:32;;;;;;;18.40;5.65;;;;;;;;;;4993455;28;100953;-78
2022/10/19 02:01:59;;;;;;;12.25;6.18;;;;;;;;;;4992676;28;100276;-79
2022/10/19 02:04:25;;;;;;;6.90;6.10;;;;;;;;;;4995357;28;98928;-78
2022/10/19 02:06:52;;;;;;;8.20;7.47;;;;;;;;;;5011700;28;99961;-78
2022/10/19 02:09:19;;;;;;;8.68;5.78;;;;;;;;;;5016150;28;100066;-78
2022/10/19 02:11:48;;;;;;;11.23;6.40;;;;;;;;;;5012659;28;100110;-78
2022/10/19 02:14:22;;;;;;;5.68;5.18;;;;;;;;;;5012522;28;100237;-78
2022/10/19 02:16:51;;;;;;;10.38;6.00;;;;;;;;;;5012813;28;98553;-78
2022/10/19 02:19:19;;;;;;;6.15;5.43;;;;;;;;;;5011588;28;99876;-79
2022/10/19 02:21:45;;;;;;;7.90;6.22;;;;;;;;;;5011420;28;99391;-78
2022/10/19 02:24:12;;;;;;;9.90;6.47;;;;;;;;;;4993276;28;98510;-78
2022/10/19 02:26:38;;;;;;;6.85;5.65;;;;;;;;;;4991909;28;100041;-78
2022/10/19 02:29:05;;;;;;;7.13;6.35;;;;;;;;;;4992158;28;100236;-78
2022/10/19 02:31:31;;;;;;;12.15;6.55;;;;;;;;;;4995844;28;98496;-78
2022/10/19 02:33:58;;;;;;;10.65;6.47;;;;;;;;;;4991402;28;100579;-78
2022/10/19 02:36:24;;;;;;;7.13;5.68;;;;;;;;;;4993278;28;97786;-78
2022/10/19 02:38:52;;;;;;;7.53;6.35;;;;;;;;;;4991974;28;99189;-78
2022/10/19 02:41:24;;;;;;;9.27;6.57;;;;;;;;;;4992265;28;100468;-78
2022/10/19 02:43:54;;;;;;;6.72;5.63;;;;;;;;;;4990975;28;99223;-78
2022/10/19 02:46:31;;;;;;;6.32;5.80;;;;;;;;;;4991839;28;101113;-78
2022/10/19 02:48:57;;;;;;;9.18;5.75;;;;;;;;;;4991524;28;102270;-79
2022/10/19 02:51:34;;;;;;;6.00;5.60;;;;;;;;;;4992617;28;98489;-78
2022/10/19 02:54:01;;;;;;;7.75;6.75;;;;;;;;;;4994222;28;99911;-78
2022/10/19 02:56:31;;;;;;;8.75;5.90;;;;;;;;;;4992970;28;98475;-78
2022/10/19 02:58:57;;;;;;;10.27;6.32;;;;;;;;;;4992042;28;100464;-78
2022/10/19 03:01:23;;;;;;;6.03;5.43;;;;;;;;;;4991679;28;99469;-78
2022/10/19 03:03:50;;;;;;;5.43;4.95;;;;;;;;;;4992022;28;98450;-77
2022/10/19 03:06:16;;;;;;;8.70;5.80;;;;;;;;;;4991942;28;100232;-77
2022/10/19 03:08:42;;;;;;;6.45;5.63;;;;;;;;;;4990594;28;100960;-78
2022/10/19 03:11:09;;;;;;;6.05;5.20;;;;;;;;;;4992216;28;98674;-78
2022/10/19 03:13:36;;;;;;;5.95;5.45;;;;;;;;;;4992650;28;100049;-78
2022/10/19 03:16:06;;;;;;;6.10;5.40;;;;;;;;;;4994005;28;100188;-78
2022/10/19 03:18:32;;;;;;;6.63;5.28;;;;;;;;;;4991758;28;99914;-78
2022/10/19 03:21:06;;;;;;;6.85;5.60;;;;;;;;;;4990527;28;100248;-77
2022/10/19 03:23:33;;;;;;;5.57;4.82;;;;;;;;;;4991969;28;98527;-78
2022/10/19 03:25:59;;;;;;;5.80;5.22;;;;;;;;;;4992117;28;99959;-78
2022/10/19 03:28:26;;;;;;;6.22;5.63;;;;;;;;;;4990555;28;100692;-78
2022/10/19 03:30:52;;;;;;;24.50;5.43;;;;;;;;;;4991728;28;98558;-78
2022/10/19 03:33:19;;;;;;;6.75;5.50;;;;;;;;;;4990790;28;99230;-78
2022/10/19 03:35:45;;;;;;;6.25;5.70;;;;;;;;;;4988890;28;100392;-78
2022/10/19 03:38:12;;;;;;;6.45;5.28;;;;;;;;;;4995190;28;98499;-78
2022/10/19 03:40:38;;;;;;;6.03;5.43;;;;;;;;;;4991309;28;100155;-78
2022/10/19 03:43:04;;;;;;;9.25;5.30;;;;;;;;;;4990688;28;98538;-77
2022/10/19 03:45:33;;;;;;;6.82;6.30;;;;;;;;;;4991698;28;99837;-78
2022/10/19 03:48:00;;;;;;;7.80;5.55;;;;;;;;;;4990207;28;100549;-78
2022/10/19 03:50:26;;;;;;;10.25;5.72;;;;;;;;;;4991414;28;98217;-78
2022/10/19 03:52:53;;;;;;;8.05;5.65;;;;;;;;;;4991218;28;99296;-78
2022/10/19 03:55:20;;;;;;;7.20;6.18;;;;;;;;;;4991205;28;100775;-77
2022/10/19 03:57:46;;;;;;;7.45;5.57;;;;;;;;;;4993387;28;99250;-77
2022/10/19 04:00:12;;;;;;;9.70;6.30;;;;;;;;;;4991027;28;99269;-78
2022/10/19 04:02:39;;;;;;;14.82;6.60;;;;;;;;;;4991588;28;98607;-78
2022/10/19 04:05:05;;;;;;;5.93;5.38;;;;;;;;;;4990483;28;99884;-78
2022/10/19 04:07:32;;;;;;;9.75;6.35;;;;;;;;;;4990962;28;100598;-78
2022/10/19 04:09:58;;;;;;;6.13;5.63;;;;;;;;;;4991126;28;98586;-78
2022/10/19 04:12:25;;;;;;;8.02;5.50;;;;;;;;;;4990795;28;99983;-77
2022/10/19 04:14:51;;;;;;;6.15;5.68;;;;;;;;;;4990905;28;99559;-78
2022/10/19 04:17:23;;;;;;;6.30;5.68;;;;;;;;;;4990601;28;98409;-78
2022/10/19 04:19:49;;;;;;;5.90;5.28;;;;;;;;;;4993832;28;99218;-78
2022/10/19 04:22:15;;;;;;;6.40;5.38;;;;;;;;;;5008623;28;99293;-78
2022/10/19 04:24:42;;;;;;;5.45;5.05;;;;;;;;;;5009976;28;101213;-78
2022/10/19 04:27:08;;;;;;;9.35;4.80;;;;;;;;;;5010305;28;100292;-77
2022/10/19 04:29:35;;;;;;;5.57;5.07;;;;;;;;;;5010570;28;98542;-78
2022/10/19 04:32:01;;;;;;;9.27;5.40;;;;;;;;;;5009577;28;100176;-78
2022/10/19 04:34:27;;;;;;;6.97;5.05;;;;;;;;;;4999200;28;100221;-78
2022/10/19 04:36:54;;;;;;;13.25;5.32;;;;;;;;;;4990137;28;98626;-78
2022/10/19 04:39:20;;;;;;;13.73;5.72;;;;;;;;;;5009228;28;99903;-78
2022/10/19 04:41:46;;;;;;;10.38;5.60;;;;;;;;;;5013331;28;100187;-78
2022/10/19 04:44:13;;;;;;;10.82;5.10;;;;;;;;;;4996789;28;99901;-78
2022/10/19 04:46:39;;;;;;;15.98;6.43;;;;;;;;;;4991759;28;100793;-78
2022/10/19 04:49:06;;;;;;;5.70;5.25;;;;;;;;;;4997081;28;98513;-77
2022/10/19 04:51:32;;;;;;;6.40;5.55;;;;;;;;;;4997287;28;100257;-78
2022/10/19 04:53:59;;;;;;;12.25;5.10;;;;;;;;;;4996146;28;100463;-78
2022/10/19 04:56:26;;;;;;;5.35;4.85;;;;;;;;;;4997587;28;98711;-77
2022/10/19 04:58:56;;;;;;;15.40;5.35;;;;;;;;;;4996969;28;99871;-79
2022/10/19 05:01:23;;;;;;;5.25;4.60;;;;;;;;;;4996156;28;100101;-78
2022/10/19 05:03:57;;;;;;;5.05;4.75;;;;;;;;;;5000328;28;97789;-78
2022/10/19 05:06:23;;;;;;;5.57;5.07;;;;;;;;;;4996960;28;100594;-78
2022/10/19 05:08:50;;;;;;;6.10;4.97;;;;;;;;;;4996165;28;98897;-77
2022/10/19 05:11:16;;;;;;;10.35;5.05;;;;;;;;;;4996918;28;99885;-77
2022/10/19 05:13:43;;;;;;;5.53;5.03;;;;;;;;;;4995877;28;100152;-77
2022/10/19 05:16:11;;;;;;;6.85;5.00;;;;;;;;;;4997173;28;98491;-77
2022/10/19 05:18:37;;;;;;;5.63;5.03;;;;;;;;;;4997194;28;99953;-77
2022/10/19 05:21:05;;;;;;;5.03;4.63;;;;;;;;;;4995494;28;100304;-78
2022/10/19 05:23:31;;;;;;;5.00;4.60;;;;;;;;;;4996920;28;98538;-78
2022/10/19 05:26:07;;;;;;;6.32;4.88;;;;;;;;;;4999808;28;99842;-78
2022/10/19 05:28:33;;;;;;;7.38;5.57;;;;;;;;;;4996257;28;97929;-78
2022/10/19 05:31:11;;;;;;;5.55;4.60;;;;;;;;;;4996226;28;99340;-78
2022/10/19 05:33:38;;;;;;;5.10;4.65;;;;;;;;;;4996266;28;100122;-78
2022/10/19 05:36:16;;;;;;;5.20;4.65;;;;;;;;;;4995426;28;100330;-77
2022/10/19 05:38:43;;;;;;;14.60;4.75;;;;;;;;;;4996859;28;99964;-78
2022/10/19 05:41:10;;;;;;;8.23;5.53;;;;;;;;;;4995427;28;102037;-77
2022/10/19 05:43:36;;;;;;;12.77;5.88;;;;;;;;;;4996064;28;99088;-78
2022/10/19 05:46:06;;;;;;;8.02;5.35;;;;;;;;;;5004464;28;99860;-78
2022/10/19 05:48:33;;;;;;;8.90;6.05;;;;;;;;;;5019411;28;99549;-77
2022/10/19 05:51:01;;;;;;;11.27;5.53;;;;;;;;;;5015490;28;99983;-78
2022/10/19 05:53:28;;;;;;;8.38;6.30;;;;;;;;;;5016810;28;99486;-78
2022/10/19 05:55:54;;;;;;;6.97;6.32;;;;;;;;;;5015271;28;98562;-78
2022/10/19 05:58:21;;;;;;;9.60;6.07;;;;;;;;;;4991534;28;99922;-77
2022/10/19 06:00:54;;;;;;;9.30;5.75;;;;;;;;;;4990058;28;101318;-78
2022/10/19 06:03:21;;;;;;;5.97;5.40;;;;;;;;;;4991890;28;98529;-78
2022/10/19 06:05:48;;;;;;;6.45;5.47;;;;;;;;;;4989295;28;100102;-78
2022/10/19 06:08:15;;;;;;;7.68;5.28;;;;;;;;;;4994679;28;100456;-78
2022/10/19 06:10:42;;;;;;;6.43;5.88;;;;;;;;;;4990815;28;99840;-78
2022/10/19 06:13:08;;;;;;;6.20;5.57;;;;;;;;;;4990844;28;100110;-79
2022/10/19 06:15:35;;;;;;;13.77;6.65;;;;;;;;;;4990475;28;100152;-77
2022/10/19 06:18:05;;;;;;;12.38;6.47;;;;;;;;;;4992343;28;100070;-78
2022/10/19 06:20:39;;;;;;;13.18;5.97;;;;;;;;;;4992398;28;100251;-78
2022/10/19 06:23:06;;;;;;;17.25;7.20;;;;;;;;;;4992580;28;98538;-77
2022/10/19 06:25:33;;;;;;;15.20;5.93;;;;;;;;;;4991296;28;99847;-80
2022/10/19 06:28:00;;;;;;;8.88;5.80;;;;;;;;;;4990619;28;100401;-79
2022/10/19 06:30:26;;;;;;;12.43;6.03;;;;;;;;;;4995943;28;98487;-78
2022/10/19 06:32:53;;;;;;;11.45;5.63;;;;;;;;;;4988976;28;99390;-79
2022/10/19 06:35:19;;;;;;;10.63;5.63;;;;;;;;;;4991614;28;99282;-81
2022/10/19 06:37:46;;;;;;;10.30;6.32;;;;;;;;;;4992378;28;100211;-78
2022/10/19 06:40:12;;;;;;;8.80;5.63;;;;;;;;;;4991526;28;100246;-78
2022/10/19 06:42:38;;;;;;;19.55;6.30;;;;;;;;;;4992981;28;97823;-79
2022/10/19 06:45:06;;;;;;;9.60;6.47;;;;;;;;;;4989782;28;100363;-78
2022/10/19 06:47:33;;;;;;;12.35;6.13;;;;;;;;;;4991034;28;100206;-79
2022/10/19 06:50:00;;;;;;;10.80;6.20;;;;;;;;;;4990682;28;99244;-79
2022/10/19 06:52:26;;;;;;;7.25;5.53;;;;;;;;;;4994674;28;100147;-79
2022/10/19 06:54:52;;;;;;;18.30;6.28;;;;;;;;;;4990983;28;99945;-78
2022/10/19 06:57:19;;;;;;;13.77;5.53;;;;;;;;;;4993701;28;100336;-79
2022/10/19 06:59:45;;;;;;;8.40;6.00;;;;;;;;;;4991523;28;99479;-79
2022/10/19 07:02:15;;;;;;;11.25;6.32;;;;;;;;;;4986391;28;98593;-80
2022/10/19 07:04:42;;;;;;;15.30;5.57;;;;;;;;;;4983301;28;100029;-79
2022/10/19 07:07:09;;;;;;;8.15;5.57;;;;;;;;;;4990519;28;99446;-77
2022/10/19 07:09:35;;;;;;;15.25;5.70;;;;;;;;;;4990001;28;98626;-78
2022/10/19 07:12:02;;;;;;;29.45;6.93;;;;;;;;;;4988847;28;100024;-77
2022/10/19 07:14:28;;;;;;;18.70;6.68;;;;;;;;;;4992812;28;100839;-77
2022/10/19 07:16:54;;;;;;;7.90;4.75;;;;;;;;;;4991904;28;100847;-78
2022/10/19 07:19:21;;;;;;;14.93;5.57;;;;;;;;;;4981756;28;99358;-78
2022/10/19 07:21:51;;;;;;;17.70;5.20;;;;;;;;;;4985091;28;98978;-78
2022/10/19 07:24:18;;;;;;;15.43;5.25;;;;;;;;;;4989500;28;99885;-78
2022/10/19 07:26:44;;;;;;;14.05;5.78;;;;;;;;;;4989524;28;100728;-78
2022/10/19 07:29:10;;;;;;;13.07;5.78;;;;;;;;;;4991500;28;98981;-78
2022/10/19 07:31:37;;;;;;;15.05;5.00;;;;;;;;;;4985604;28;100563;-78
2022/10/19 07:34:03;;;;;;;22.45;5.70;;;;;;;;;;4990936;28;100133;-78
2022/10/19 07:36:32;;;;;;;10.25;4.95;;;;;;;;;;4988894;28;100145;-77
2022/10/19 07:39:05;;;;;;;8.98;5.50;;;;;;;;;;4990550;28;101071;-78
2022/10/19 07:41:31;;;;;;;17.58;5.55;;;;;;;;;;4990945;28;98786;-77
2022/10/19 07:43:58;;;;;;;11.93;5.00;;;;;;;;;;4989022;28;100181;-78
2022/10/19 07:46:27;;;;;;;11.00;5.43;;;;;;;;;;4990925;28;100432;-78
2022/10/19 07:48:54;;;;;;;8.75;6.05;;;;;;;;;;4990721;28;98498;-77
2022/10/19 07:51:23;;;;;;;9.10;5.10;;;;;;;;;;4981278;28;100099;-76
2022/10/19 07:53:57;;;;;;;14.82;5.47;;;;;;;;;;4985726;28;101724;-76
2022/10/19 07:56:25;;;;;;;19.27;5.47;;;;;;;;;;4991096;28;99022;-79
2022/10/19 07:58:52;;;;;;;12.25;5.45;;;;;;;;;;4992097;28;100231;-78
2022/10/19 08:01:20;;;;;;;8.43;5.00;;;;;;;;;;4992044;28;99450;-77
2022/10/19 08:03:47;;;;;;;10.98;5.07;;;;;;;;;;4990015;28;99848;-77
2022/10/19 08:06:33;;;;;;;9.85;4.18;;;;;;;;;;4988102;28;100348;-77
2022/10/19 08:09:00;;;;;;;13.77;4.40;;;;;;;;;;4985618;28;99925;-77
2022/10/19 08:11:28;;;;;;;14.88;5.00;;;;;;;;;;4989837;28;100865;-76
2022/10/19 08:13:57;;;;;;;9.95;4.22;;;;;;;;;;4990486;28;99006;-76
2022/10/19 08:16:25;;;;;;;7.93;3.88;;;;;;;;;;4987421;28;99885;-77
2022/10/19 08:18:54;;;;;;;8.27;4.32;;;;;;;;;;4994237;28;98870;-77
2022/10/19 08:21:25;;;;;;;12.38;4.60;;;;;;;;;;4989688;28;97797;-76
2022/10/19 08:23:51;;;;;;;7.15;3.72;;;;;;;;;;5005108;28;99552;-77
2022/10/19 08:26:18;;;;;;;7.70;4.05;;;;;;;;;;4985009;28;100198;-77
2022/10/19 08:28:44;;;;;;;13.10;5.85;;;;;;;;;;4986272;28;99310;-78
2022/10/19 08:31:12;;;;;;;13.43;3.97;;;;;;;;;;4989112;28;100840;-78
2022/10/19 08:33:39;;;;;;;13.88;4.13;;;;;;;;;;4990753;28;100361;-78
2022/10/19 08:36:06;;;;;;;9.07;3.72;;;;;;;;;;4990507;28;98589;-78
2022/10/19 08:38:34;;;;;;;10.57;3.85;;;;;;;;;;4990276;28;99960;-79
2022/10/19 08:41:12;;;;;;;10.52;3.67;;;;;;;;;;4992024;28;100844;-78
2022/10/19 08:43:43;;;;;;;10.48;4.07;;;;;;;;;;4971092;28;100724;-78
2022/10/19 08:46:13;;;;;;;6.57;2.88;;;;;;;;;;4979996;28;99343;-76
2022/10/19 08:48:41;;;;;;;9.48;3.80;;;;;;;;;;4987878;28;98752;-77
2022/10/19 08:51:10;;;;;;;10.32;3.65;;;;;;;;;;4989839;28;100160;-76
2022/10/19 08:53:36;;;;;;;7.30;3.45;;;;;;;;;;4988740;28;100941;-77
2022/10/19 08:56:05;;;;;;;5.15;3.58;;;;;;;;;;4990523;28;98571;-80
2022/10/19 08:58:50;;;;;;;6.82;3.10;;;;;;;;;;4988124;28;100999;-77
2022/10/19 09:01:24;;;;;;;8.23;3.35;;;;;;;;;;4989325;28;99675;-76
2022/10/19 09:03:55;;;;;;;9.57;3.75;;;;;;;;;;4993832;28;98471;-77
2022/10/19 09:06:30;;;;;;;8.95;3.42;;;;;;;;;;4986605;28;100095;-77
2022/10/19 09:08:57;;;;;;;9.32;3.33;;;;;;;;;;4988443;28;98481;-80
2022/10/19 09:11:26;;;;;;;7.15;3.33;;;;;;;;;;4984166;28;99738;-77
2022/10/19 09:14:01;;;;;;;7.35;3.53;;;;;;;;;;4987068;28;99389;-77
2022/10/19 09:16:33;;;;;;;9.43;3.90;;;;;;;;;;4982503;28;98485;-77
2022/10/19 09:19:00;;;;;;;9.20;3.78;;;;;;;;;;4988631;28;99357;-77
2022/10/19 09:21:45;;;;;;;8.73;3.17;;;;;;;;;;4987610;28;100449;-77
2022/10/19 09:24:31;;;;;;;9.82;3.88;;;;;;;;;;5006611;28;98531;-77
2022/10/19 09:26:58;;;;;;;8.95;3.42;;;;;;;;;;4992051;28;99887;-77
2022/10/19 09:29:45;;;;;;;8.63;3.72;;;;;;;;;;4988381;28;99034;-77
2022/10/19 09:32:14;;;;;;;8.40;3.47;;;;;;;;;;4989085;28;100020;-77
2022/10/19 09:34:42;;;;;;;10.48;4.13;;;;;;;;;;4992536;28;100200;-77
2022/10/19 09:37:10;;;;;;;8.63;4.07;;;;;;;;;;4994236;28;98476;-78
2022/10/19 09:39:48;;;;;;;10.45;2.47;;;;;;;;;;4990373;28;99189;-78
2022/10/19 09:42:31;;;;;;;8.13;3.03;;;;;;;;;;4990365;28;100154;-78
2022/10/19 09:45:00;;;;;;;5.25;2.60;;;;;;;;;;4983015;28;100085;-78
2022/10/19 09:47:31;;;;;;;5.57;2.72;;;;;;;;;;4991100;28;100849;-78
2022/10/19 09:50:06;;;;;;;5.68;2.50;;;;;;;;;;4994218;28;102059;-77
2022/10/19 09:52:36;;;;;;;7.93;3.42;;;;;;;;;;4993110;28;102153;-78
2022/10/19 09:55:12;;;;;;;12.75;3.20;;;;;;;;;;4991371;28;100330;-77
2022/10/19 09:57:46;;;;;;;10.52;3.20;;;;;;;;;;4993392;28;98481;-76
2022/10/19 10:00:22;;;;;;;6.28;2.42;;;;;;;;;;4991013;28;99986;-77
2022/10/19 10:02:54;;;;;;;5.15;2.50;;;;;;;;;;4989066;28;99658;-77
2022/10/19 10:05:28;;;;;;;6.85;2.45;;;;;;;;;;4989108;28;99193;-79
2022/10/19 10:07:55;;;;;;;6.47;2.42;;;;;;;;;;4992046;28;99785;-80
2022/10/19 10:10:25;;;;;;;14.13;4.35;;;;;;;;;;4989730;28;100897;-80
2022/10/19 10:12:59;;;;;;;7.70;2.25;;;;;;;;;;4994134;28;99733;-79
2022/10/19 10:15:26;;;;;;;11.98;2.80;;;;;;;;;;4990059;28;100160;-82
2022/10/19 10:17:54;;;;;;;10.40;2.17;;;;;;;;;;4991903;28;99071;-81
2022/10/19 10:20:26;;;;;;;8.73;2.10;;;;;;;;;;4992800;28;99927;-85
2022/10/19 10:22:56;;;;;;;4.50;1.90;;;;;;;;;;4991823;28;100396;-82
2022/10/19 10:25:24;;;;;;;7.35;2.10;;;;;;;;;;4990147;28;99211;-86
2022/10/19 10:27:56;;;;;;;13.10;2.38;;;;;;;;;;4991158;28;99963;-76
2022/10/19 10:30:22;;;;;;;6.95;1.98;;;;;;;;;;4988382;28;99489;-76
2022/10/19 10:32:49;;;;;;;4.28;1.45;;;;;;;;;;4995607;28;98479;-78
2022/10/19 10:35:18;;;;;;;3.88;1.50;;;;;;;;;;4991027;28;100791;-77
2022/10/19 10:37:46;;;;;;;8.25;1.58;;;;;;;;;;4988776;28;100394;-76
2022/10/19 10:40:33;;;;;;;6.43;1.83;;;;;;;;;;4991054;28;98921;-76
2022/10/19 10:43:07;;;;;;;8.55;1.65;;;;;;;;;;4990697;28;100167;-76
2022/10/19 10:45:39;;;;;;;5.78;1.90;;;;;;;;;;5006419;28;99249;-77
2022/10/19 10:48:29;;;;;;;5.32;1.75;;;;;;;;;;4992808;28;99000;-77
2022/10/19 10:50:58;;;;;;;5.93;1.45;;;;;;;;;;4988893;28;99143;-76
2022/10/19 10:53:42;;;;;;;3.80;1.80;;;;;;;;;;4992173;28;98499;-74
2022/10/19 10:56:24;;;;;;;6.10;1.80;;;;;;;;;;4995555;28;99231;-75
2022/10/19 10:59:14;;;;;;;6.30;1.67;;;;;;;;;;4990583;28;98576;-75
2022/10/19 11:01:43;;;;;;;6.45;1.40;;;;;;;;;;4988887;28;99991;-74
2022/10/19 11:04:14;;;;;;;3.08;1.20;;;;;;;;;;4989998;28;99436;-76
2022/10/19 11:07:00;;;;;;;3.08;1.20;;;;;;;;;;4991483;28;98821;-76
2022/10/19 11:09:41;;;;;;;5.78;1.40;;;;;;;;;;4992234;28;98925;-76
2022/10/19 11:12:11;;;;;;;5.75;1.45;;;;;;;;;;4980322;28;100502;-75
2022/10/19 11:14:40;;;;;;;;;;;;;;;;;;4985493;28;98663;-77
2022/10/19 11:17:10;;;;;;;2.72;1.33;;;;;;;;;;4989463;28;128851;-84
2022/10/19 11:19:43;;;;;;;7.72;2.35;;;;;;;;;;4988622;28;98651;-77
2022/10/19 11:22:27;;;;;;;11.75;2.00;;;;;;;;;;4985080;28;99012;-77
2022/10/19 11:25:12;;;;;;;6.97;1.40;;;;;;;;;;4990977;28;99340;-78
2022/10/19 11:27:51;;;;;;;5.40;1.40;;;;;;;;;;4989976;28;99304;-79
2022/10/19 11:30:21;;;;;;;16.05;1.88;;;;;;;;;;4988812;28;100743;-79
2022/10/19 11:33:04;;;;;;;1.65;1.10;;;;;;;;;;4988223;28;99252;-80
2022/10/19 11:35:48;;;;;;;6.18;1.55;;;;;;;;;;4989002;28;98575;-79
2022/10/19 11:38:17;;;;;;;7.38;2.17;;;;;;;;;;4992907;28;99999;-79
2022/10/19 11:41:03;;;;;;;4.40;1.50;;;;;;;;;;4979358;28;99117;-80
2022/10/19 11:44:25;;;;;;;3.40;1.08;;;;;;;;;;4975650;28;98468;-81
2022/10/19 11:46:57;;;;;;;1.95;1.00;;;;;;;;;;4991913;28;101240;-81
2022/10/19 11:49:43;;;;;;;3.20;1.20;;;;;;;;;;4977137;28;100541;-79
2022/10/19 11:52:24;;;;;;;3.47;1.85;;;;;;;;;;4991759;28;100306;-77
2022/10/19 11:54:51;;;;;;;3.83;1.20;;;;;;;;;;4987336;28;100651;-78
2022/10/19 11:57:24;;;;;;;5.53;1.60;;;;;;;;;;4984444;28;99179;-82
2022/10/19 12:00:20;;;;;;;3.38;1.60;;;;;;;;;;4988140;28;99845;-81
2022/10/19 12:03:24;;;;;;;5.82;1.63;;;;;;;;;;4979524;28;100893;-79
2022/10/19 12:06:11;;;;;;;4.18;1.48;;;;;;;;;;4990158;28;98796;-79
2022/10/19 12:08:45;;;;;;;3.80;1.48;;;;;;;;;;4991348;28;99274;-80
2022/10/19 12:11:22;;;;;;;4.70;1.50;;;;;;;;;;4991151;28;98722;-82
2022/10/19 12:13:57;;;;;;;7.30;1.33;;;;;;;;;;4991143;28;100025;-82
2022/10/19 12:16:29;;;;;;;6.57;1.25;;;;;;;;;;4983700;28;100336;-83
2022/10/19 12:18:59;;;;;;;2.92;1.52;;;;;;;;;;4992017;28;98464;-85
2022/10/19 12:21:54;;;;;;;4.22;1.63;;;;;;;;;;4988538;28;99286;-86
2022/10/19 12:24:25;;;;;;;4.70;1.40;;;;;;;;;;4983615;28;100182;-80
2022/10/19 12:26:53;;;;;;;5.80;1.60;;;;;;;;;;4980817;28;99311;-79
2022/10/19 12:29:27;;;;;;;4.22;1.73;;;;;;;;;;4992503;28;99080;-81
2022/10/19 12:31:56;;;;;;;4.50;1.48;;;;;;;;;;4989004;28;100017;-82
2022/10/19 12:34:25;;;;;;;5.20;1.85;;;;;;;;;;4990918;28;100219;-77
2022/10/19 12:37:18;;;;;;;8.60;2.00;;;;;;;;;;4986277;28;100424;-82
2022/10/19 12:39:55;;;;;;;13.63;1.92;;;;;;;;;;4988765;28;97989;-78
2022/10/19 12:42:50;;;;;;;8.23;2.00;;;;;;;;;;4984698;28;99257;-77
2022/10/19 12:45:17;;;;;;;7.25;1.90;;;;;;;;;;4987650;28;100594;-77
2022/10/19 12:48:05;;;;;;;3.42;1.42;;;;;;;;;;4989725;28;99324;-77
2022/10/19 12:50:46;;;;;;;2.80;1.63;;;;;;;;;;4989306;28;101280;-77
2022/10/19 12:53:30;;;;;;;3.47;1.70;;;;;;;;;;4990309;28;100736;-78
2022/10/19 12:56:08;;;;;;;7.13;1.73;;;;;;;;;;4988864;28;99930;-78
2022/10/19 12:58:44;;;;;;;2.42;1.58;;;;;;;;;;4989191;28;100214;-77
2022/10/19 13:01:24;;;;;;;4.70;1.73;;;;;;;;;;4987403;28;99059;-78
2022/10/19 13:03:53;;;;;;;4.55;2.00;;;;;;;;;;4986693;28;99960;-78
2022/10/19 13:06:22;;;;;;;5.50;1.83;;;;;;;;;;4988420;28;99353;-78
2022/10/19 13:08:51;;;;;;;5.60;1.70;;;;;;;;;;4989791;28;98705;-78
2022/10/19 13:11:18;;;;;;;6.28;2.00;;;;;;;;;;4991023;28;100102;-78
2022/10/19 13:13:59;;;;;;;10.07;2.60;;;;;;;;;;4989458;28;100921;-79
2022/10/19 13:16:28;;;;;;;4.10;2.05;;;;;;;;;;4993385;28;98953;-78
2022/10/19 13:19:06;;;;;;;7.38;1.55;;;;;;;;;;4986931;28;100448;-77
2022/10/19 13:21:49;;;;;;;4.05;1.85;;;;;;;;;;4988071;28;100297;-79
2022/10/19 13:24:25;;;;;;;7.68;2.03;;;;;;;;;;4980369;28;99851;-77
2022/10/19 13:27:03;;;;;;;2.42;1.95;;;;;;;;;;4989560;28;99922;-77
2022/10/19 13:29:35;;;;;;;4.18;1.60;;;;;;;;;;4989581;28;98861;-78
2022/10/19 13:32:21;;;;;;;9.15;2.20;;;;;;;;;;4992619;28;100103;-78
2022/10/19 13:34:47;;;;;;;3.58;1.65;;;;;;;;;;4992124;28;100201;-78
2022/10/19 13:37:15;;;;;;;8.77;1.95;;;;;;;;;;4993777;28;98644;-79
2022/10/19 13:39:42;;;;;;;3.95;2.30;;;;;;;;;;4996029;28;99849;-78
2022/10/19 13:42:22;;;;;;;3.47;1.67;;;;;;;;;;4992506;28;98552;-78
2022/10/19 13:44:51;;;;;;;4.82;1.83;;;;;;;;;;4993281;28;100124;-79
2022/10/19 13:47:28;;;;;;;4.90;2.33;;;;;;;;;;4992167;28;100924;-79
2022/10/19 13:49:58;;;;;;;6.95;2.10;;;;;;;;;;4993013;28;98564;-77
2022/10/19 13:52:24;;;;;;;7.22;1.92;;;;;;;;;;4993396;28;99944;-78
2022/10/19 13:55:09;;;;;;;7.28;2.10;;;;;;;;;;4991702;28;100395;-78
2022/10/19 13:57:54;;;;;;;4.50;1.90;;;;;;;;;;4994068;28;97739;-79
2022/10/19 14:00:29;;;;;;;7.32;1.90;;;;;;;;;;4993291;28;99388;-80
2022/10/19 14:03:09;;;;;;;6.28;2.17;;;;;;;;;;4995196;28;100394;-79
2022/10/19 14:05:55;;;;;;;4.32;1.67;;;;;;;;;;4992863;28;99877;-79
2022/10/19 14:08:40;;;;;;;4.22;1.67;;;;;;;;;;4991493;28;100325;-79
2022/10/19 14:11:13;;;;;;;7.75;2.00;;;;;;;;;;4973056;28;98434;-80
2022/10/19 14:13:39;;;;;;;6.30;1.50;;;;;;;;;;4973409;28;99921;-79
2022/10/19 14:16:05;;;;;;;5.45;2.13;;;;;;;;;;4972553;28;100445;-79
2022/10/19 14:18:33;;;;;;;4.95;1.83;;;;;;;;;;4992272;28;98505;-79
2022/10/19 14:21:01;;;;;;;5.60;2.08;;;;;;;;;;4992098;28;100241;-78
2022/10/19 14:23:32;;;;;;;4.32;1.83;;;;;;;;;;4992332;28;100130;-79
2022/10/19 14:26:18;;;;;;;6.65;1.65;;;;;;;;;;4995917;28;98486;-79
2022/10/19 14:28:50;;;;;;;5.55;1.73;;;;;;;;;;4992033;28;100217;-79
2022/10/19 14:31:18;;;;;;;4.65;1.45;;;;;;;;;;4990058;28;99912;-79
2022/10/19 14:33:46;;;;;;;4.45;1.23;;;;;;;;;;4992088;28;100547;-79
2022/10/19 14:36:15;;;;;;;5.30;1.63;;;;;;;;;;4991588;28;100205;-79
2022/10/19 14:38:44;;;;;;;4.80;1.73;;;;;;;;;;4992651;28;98621;-79
2022/10/19 14:41:37;;;;;;;4.45;1.83;;;;;;;;;;4991955;28;99155;-79
2022/10/19 14:44:38;;;;;;;7.45;1.80;;;;;;;;;;4987819;28;99636;-79
2022/10/19 14:47:13;;;;;;;7.55;2.63;;;;;;;;;;4953387;28;98582;-79
2022/10/19 14:49:40;;;;;;;11.20;2.30;;;;;;;;;;4985818;28;99684;-79
2022/10/19 14:52:07;;;;;;;6.57;1.50;;;;;;;;;;4991026;28;98482;-79
2022/10/19 14:54:36;;;;;;;3.53;1.50;;;;;;;;;;4991741;28;100138;-79